»·PEaware :: N2TX 10CL-KSAN

N2TX :: 10CL-KSAN

FLIGHT INFORMATION

Flight Status: Arrived
Operator: Privately registered:
United States
More flights under this callsign
Pilot: Anonymous 13363 (13363)
Aircraft: Unknown
(KODI)
More flights by this aircraft type
Origin: 10CL Joe Gottlieb Field
United States
Destination: KSAN San Diego Intl-Lindbergh
United States
More flights between these airports :: More routes between these airports
Route: +GMN LAX HUBRD1
File this flight plan on PilotEdge
Remarks: FIFE TRREEEEEE
Altitude:
(Current/Filed)
15,000ft
Speed:
(Current/Filed)
230kts
Departed: 23-Jan-18 08:36 PM
Arrived: 23-Jan-18 09:52 PM
Distance/Time
Traveled:
187nm/1:16
Distance/Time
To Go:
Arrived

Flight Plot

Page will automatically refresh every two minutes.

Flight plan parsing failed; only flown route is shown


Map Options




Map Legend


Flown Route
Filed Route
Departure Airport
Arrival Airport
Navaid (VOR, NDB)
Fix

Horizontal Profiles

Position Reports

Time Latitude Longitude Heading Altitude Ground
Speed
23-Jan-18 20:41 35.311920 -119.185297 179 4571ft 124kts
23-Jan-18 20:42 35.285122 -119.164414 129 6437ft 118kts
23-Jan-18 20:43 35.263906 -119.140636 138 8242ft 109kts
23-Jan-18 20:44 35.250862 -119.119264 157 9902ft 96kts
23-Jan-18 20:45 35.225907 -119.108052 156 11382ft 112kts
23-Jan-18 20:46 35.194438 -119.091166 157 12576ft 133kts
23-Jan-18 20:47 35.157625 -119.070041 157 12996ft 169kts
23-Jan-18 20:48 35.114172 -119.044547 154 12990ft 177kts
23-Jan-18 20:49 35.072448 -119.019692 156 13599ft 155kts
23-Jan-18 20:50 35.036032 -118.998121 157 14659ft 143kts
23-Jan-18 20:51 35.003433 -118.978900 156 15024ft 169kts
23-Jan-18 20:52 34.959632 -118.953064 156 14991ft 181kts
23-Jan-18 20:53 34.913357 -118.925812 156 14991ft 191kts
23-Jan-18 20:54 34.879370 -118.905790 156 14990ft 192kts
23-Jan-18 20:55 34.833242 -118.878675 155 14988ft 183kts
23-Jan-18 20:56 34.787435 -118.853205 159 14990ft 181kts
23-Jan-18 20:57 34.740841 -118.829967 159 14990ft 181kts
23-Jan-18 20:58 34.694320 -118.806821 159 14990ft 181kts
23-Jan-18 20:59 34.647758 -118.783686 159 14990ft 181kts
23-Jan-18 21:00 34.601357 -118.760657 159 14990ft 181kts
23-Jan-18 21:01 34.556651 -118.738506 159 14989ft 180kts
23-Jan-18 21:02 34.510288 -118.715536 159 14990ft 181kts
23-Jan-18 21:03 34.463676 -118.692494 159 14990ft 181kts
23-Jan-18 21:04 34.417584 -118.669730 159 14990ft 181kts
23-Jan-18 21:05 34.372630 -118.647556 159 14930ft 183kts
23-Jan-18 21:06 34.326707 -118.624925 159 14909ft 181kts
23-Jan-18 21:07 34.280722 -118.602293 159 14910ft 181kts
23-Jan-18 21:08 34.234570 -118.579605 159 14937ft 180kts
23-Jan-18 21:09 34.188370 -118.556923 159 14922ft 181kts
23-Jan-18 21:10 34.141739 -118.534054 159 14883ft 181kts
23-Jan-18 21:11 34.095292 -118.511302 159 14883ft 180kts
23-Jan-18 21:12 34.049826 -118.489084 158 14908ft 179kts
23-Jan-18 21:13 34.004752 -118.467026 159 14910ft 180kts
23-Jan-18 21:14 33.958983 -118.444689 159 14910ft 180kts
23-Jan-18 21:15 33.918994 -118.413113 134 14986ft 180kts
23-Jan-18 21:16 33.891147 -118.377964 133 14983ft 182kts
23-Jan-18 21:17 33.857588 -118.335025 133 14981ft 182kts
23-Jan-18 21:18 33.832839 -118.303304 133 14981ft 181kts
23-Jan-18 21:19 33.792921 -118.252191 133 14973ft 181kts
23-Jan-18 21:20 33.758330 -118.207932 133 14954ft 182kts
23-Jan-18 21:21 33.724591 -118.164832 133 14981ft 181kts
23-Jan-18 21:22 33.696047 -118.128410 133 14982ft 181kts
23-Jan-18 21:23 33.661574 -118.084470 133 14982ft 181kts
23-Jan-18 21:24 33.626992 -118.040445 133 14982ft 181kts
23-Jan-18 21:25 33.587836 -117.990666 133 14982ft 181kts
23-Jan-18 21:26 33.558864 -117.953881 133 14982ft 182kts
23-Jan-18 21:27 33.524197 -117.909915 133 14982ft 182kts
23-Jan-18 21:28 33.489506 -117.865971 133 14982ft 182kts
23-Jan-18 21:29 33.454180 -117.821279 133 14618ft 186kts
23-Jan-18 21:30 33.418823 -117.776610 133 14220ft 184kts
23-Jan-18 21:31 33.384118 -117.732818 134 13958ft 178kts
23-Jan-18 21:32 33.350763 -117.690779 134 13955ft 173kts
23-Jan-18 21:33 33.317715 -117.649184 134 13956ft 172kts
23-Jan-18 21:34 33.284689 -117.607663 134 13956ft 172kts
23-Jan-18 21:35 33.252956 -117.567814 134 13956ft 172kts
23-Jan-18 21:36 33.219938 -117.526395 134 13830ft 175kts
23-Jan-18 21:37 33.185975 -117.483840 134 13341ft 177kts
23-Jan-18 21:38 33.152112 -117.441437 134 12852ft 176kts
23-Jan-18 21:39 33.113725 -117.409327 156 12367ft 174kts
23-Jan-18 21:40 33.101342 -117.402385 156 12228ft 173kts
23-Jan-18 21:41 33.079410 -117.390162 156 11981ft 173kts
23-Jan-18 21:42 33.079410 -117.390162 156 11981ft 173kts
23-Jan-18 21:43 33.047331 -117.372327 156 11620ft 173kts
23-Jan-18 21:44 33.003599 -117.348041 156 10059ft 192kts
23-Jan-18 21:45 32.956834 -117.322143 154 7551ft 197kts
23-Jan-18 21:46 32.913277 -117.297958 152 5948ft 147kts
23-Jan-18 21:47 32.878737 -117.278826 152 5955ft 146kts
23-Jan-18 21:48 32.849312 -117.250674 146 5948ft 142kts
23-Jan-18 21:49 32.829947 -117.215056 118 6157ft 130kts
23-Jan-18 21:50 32.812916 -117.175356 107 5827ft 117kts
23-Jan-18 21:51 32.799303 -117.146933 160 4295ft 93kts
23-Jan-18 21:52 32.774704 -117.147011 187 3058ft 90kts
23-Jan-18 21:53 32.749170 -117.153427 194 1957ft 112kts
23-Jan-18 21:54 32.730223 -117.174467 292 464ft 150kts
23-Jan-18 21:55 32.743526 -117.213543 353 763ft 141kts
23-Jan-18 21:56 32.744009 -117.177614 105 973ft 116kts
23-Jan-18 21:57 32.731067 -117.179346 285 116ft 89kts
23-Jan-18 21:58 32.733881 -117.194828 131 17ft 6kts
23-Jan-18 21:59 32.734324 -117.187923 107 18ft 43kts
23-Jan-18 22:00 32.732327 -117.179782 104 19ft 13kts
23-Jan-18 22:01 32.732421 -117.176904 284 30ft 0kts

Navigation Log

Ident Type
Flight plan parsing failed, navigation log unavailable